Time;durP1;ratioP1;P1;durP2;ratioP2;P2;SDS_P1;SDS_P2;PMS_P1;PMS_P2;Temp;Humidity;BMP_temperature;BMP_pressure;BME280_temperature;BME280_humidity;BME280_pressure;Samples;Min_cycle;Max_cycle;Signal;HPM_P1;HPM_P2
2022/01/16 00:06:55;;;;;;;42.90;23.50;;;;;;;-3.20;85.29;100393.55;429247;1273;143743;-59
2022/01/16 00:17:02;;;;;;;43.40;23.50;;;;;;;-3.14;85.48;100385.17;431237;1272;143046;-59
2022/01/16 00:27:08;;;;;;;36.40;21.50;;;;;;;-3.18;85.29;100380.88;429587;1272;142298;-60
2022/01/16 00:37:14;;;;;;;41.30;23.70;;;;;;;-3.19;85.44;100349.52;431304;1271;142202;-61
2022/01/16 00:47:20;;;;;;;47.30;24.50;;;;;;;-3.16;85.52;100351.42;430606;1273;142612;-60
2022/01/16 00:57:27;;;;;;;39.40;21.20;;;;;;;-3.16;85.46;100367.70;430180;1273;142882;-62
2022/01/16 01:07:31;;;;;;;;;;;;;;;-3.17;85.49;100390.48;434499;1273;141937;-63
2022/01/16 01:17:58;;;;;;;30.70;15.60;;;;;;;-3.19;85.65;100375.56;430277;1273;128778;-66
2022/01/16 01:28:04;;;;;;;32.90;15.70;;;;;;;-3.17;85.66;100364.79;431927;1273;143103;-63
2022/01/16 01:38:12;;;;;;;30.90;14.40;;;;;;;-3.16;85.75;100353.83;430054;1273;142207;-63
2022/01/16 01:58:38;;;;;;;20.90;11.60;;;;;;;-3.04;85.89;100200.89;431515;1273;197470;-63
2022/01/16 02:08:47;;;;;;;24.70;14.30;;;;;;;-2.97;85.87;100256.93;429728;1272;142358;-63
2022/01/16 02:29:55;;;;;;;24.10;12.90;;;;;;;-2.86;85.97;100255.92;431579;1273;141670;-69
2022/01/16 02:40:04;;;;;;;21.30;9.30;;;;;;;-2.74;85.97;100262.45;429842;1273;141811;-68
2022/01/16 02:50:11;;;;;;;24.70;10.70;;;;;;;-2.62;85.98;100271.05;429721;1274;142952;-68
2022/01/16 03:00:19;;;;;;;12.90;7.80;;;;;;;-2.54;85.77;100264.02;431183;1273;142252;-60
2022/01/16 03:31:15;;;;;;;24.80;12.30;;;;;;;-2.29;85.84;100236.41;430481;1275;141557;-59
2022/01/16 03:41:21;;;;;;;24.50;12.00;;;;;;;-2.27;85.70;100215.66;432519;1272;141742;-59
2022/01/16 03:51:27;;;;;;;27.80;15.00;;;;;;;-2.23;85.63;100196.78;430278;1273;141966;-59
2022/01/16 04:01:33;;;;;;;24.20;11.90;;;;;;;-2.19;85.77;100179.11;433154;1275;141798;-58
2022/01/16 04:11:45;;;;;;;;;;;;;;;-2.15;85.68;100162.45;432316;1273;141845;-60
2022/01/16 04:21:51;;;;;;;18.80;11.20;;;;;;;-2.08;85.80;100149.23;431369;1273;129741;-59
2022/01/16 04:31:57;;;;;;;17.50;9.80;;;;;;;-2.06;85.44;100134.81;430287;1273;142824;-60
2022/01/16 04:52:27;;;;;;;18.50;10.60;;;;;;;-2.08;85.43;100118.69;430680;1271;142635;-58
2022/01/16 05:02:33;;;;;;;18.70;10.80;;;;;;;-2.03;85.35;100111.46;430464;1272;142112;-60
2022/01/16 05:12:42;;;;;;;22.50;10.90;;;;;;;-1.96;85.23;100087.41;431857;1273;142298;-59
2022/01/16 05:22:48;;;;;;;23.70;12.50;;;;;;;-1.88;85.05;100079.31;431289;1273;142915;-59
2022/01/16 05:32:54;;;;;;;21.10;12.80;;;;;;;-1.87;85.18;100071.75;431714;1273;142532;-59
2022/01/16 05:43:01;;;;;;;18.20;12.60;;;;;;;-1.85;84.92;100053.20;430037;1273;142405;-59
2022/01/16 05:53:07;;;;;;;22.00;12.10;;;;;;;-1.85;85.08;100038.80;431391;1273;141983;-59
2022/01/16 06:03:13;;;;;;;19.50;11.60;;;;;;;-1.84;84.98;100028.84;432522;1271;143099;-58
2022/01/16 06:13:19;;;;;;;24.00;12.70;;;;;;;-1.80;85.05;100027.44;430721;1273;142026;-59
2022/01/16 06:23:25;;;;;;;20.70;12.60;;;;;;;-1.77;85.09;100016.95;430504;1273;141254;-58
2022/01/16 06:33:31;;;;;;;24.00;12.30;;;;;;;-1.69;85.00;100016.20;430277;1273;142868;-59
2022/01/16 06:43:37;;;;;;;24.50;13.50;;;;;;;-1.62;85.13;99993.33;431218;1273;142611;-59
2022/01/16 06:53:43;;;;;;;22.80;12.90;;;;;;;-1.55;85.06;99980.39;431055;1273;141423;-61
2022/01/16 07:03:49;;;;;;;26.50;13.80;;;;;;;-1.48;85.22;99972.77;429880;1273;143315;-59
2022/01/16 07:13:55;;;;;;;29.30;13.30;;;;;;;-1.41;85.22;99972.89;430251;1273;142073;-59
2022/01/16 07:24:01;;;;;;;26.10;14.20;;;;;;;-1.34;85.26;99967.67;430857;1273;141659;-59
2022/01/16 07:34:08;;;;;;;27.50;14.30;;;;;;;-1.28;85.46;99962.30;431309;1273;142141;-60
2022/01/16 07:44:14;;;;;;;27.70;12.60;;;;;;;-1.24;85.31;99957.81;431816;1273;145276;-59
2022/01/16 07:54:20;;;;;;;20.70;13.40;;;;;;;-1.19;85.30;99958.27;430470;1273;141821;-58
2022/01/16 08:04:25;;;;;;;20.90;11.90;;;;;;;-1.18;85.26;99979.22;431860;1273;142018;-59
2022/01/16 08:14:31;;;;;;;17.50;10.70;;;;;;;-1.22;85.19;99971.52;431483;1273;142413;-62
2022/01/16 08:24:38;;;;;;;17.30;10.70;;;;;;;-1.23;85.05;99965.52;430140;1275;142161;-59
2022/01/16 08:34:43;;;;;;;14.90;7.70;;;;;;;-1.19;84.96;99951.91;431300;1273;143049;-59
2022/01/16 08:44:50;;;;;;;23.50;13.40;;;;;;;-1.12;84.98;99947.39;430625;1273;141570;-59
2022/01/16 08:54:57;;;;;;;22.90;14.70;;;;;;;-1.01;85.05;99916.83;430613;1273;141812;-59
2022/01/16 09:05:03;;;;;;;27.90;18.00;;;;;;;-0.87;84.47;99898.13;431630;1273;142182;-60
2022/01/16 09:15:12;;;;;;;24.60;14.60;;;;;;;-0.71;84.23;99876.26;431678;1273;141728;-59
2022/01/16 09:25:20;;;;;;;29.90;16.70;;;;;;;-0.49;84.25;99856.88;431844;1273;142070;-59
2022/01/16 09:35:26;;;;;;;30.70;16.80;;;;;;;-0.32;83.88;99836.34;431165;1273;141436;-58
2022/01/16 09:45:33;;;;;;;28.30;17.50;;;;;;;-0.03;83.57;99826.42;433554;1273;142152;-60
2022/01/16 09:55:39;;;;;;;32.20;16.90;;;;;;;0.19;83.07;99813.30;430416;1273;146543;-60
2022/01/16 10:05:47;;;;;;;31.10;18.30;;;;;;;0.33;82.65;99804.29;432107;1273;142794;-59
2022/01/16 10:15:58;;;;;;;20.50;13.80;;;;;;;0.51;82.43;99794.98;430374;1274;142821;-58
2022/01/16 10:26:04;;;;;;;30.70;16.40;;;;;;;0.85;82.02;99785.17;433248;1273;141654;-60
2022/01/16 10:36:10;;;;;;;31.30;18.10;;;;;;;0.99;81.49;99784.35;432145;1273;141974;-60
2022/01/16 10:46:16;;;;;;;29.40;19.00;;;;;;;0.85;80.85;99773.95;429465;1273;142653;-59
2022/01/16 10:56:35;;;;;;;33.40;20.20;;;;;;;0.76;80.99;99756.23;430693;1273;142233;-64
2022/01/16 11:06:41;;;;;;;35.80;22.60;;;;;;;0.81;80.82;99737.34;430251;1273;141511;-73
2022/01/16 11:16:47;;;;;;;33.30;22.00;;;;;;;1.14;80.69;99714.72;430677;1273;141451;-72
2022/01/16 11:26:59;;;;;;;38.20;20.30;;;;;;;1.31;80.26;99699.66;430701;1274;141073;-67
2022/01/16 11:37:05;;;;;;;33.20;20.60;;;;;;;1.28;80.14;99693.34;432151;1273;142019;-66
2022/01/16 11:47:17;;;;;;;38.90;22.10;;;;;;;1.30;79.93;99676.40;430650;1273;314640;-66
2022/01/16 11:57:25;;;;;;;38.10;22.80;;;;;;;1.17;79.82;99671.02;431478;1274;141302;-69
2022/01/16 12:07:49;;;;;;;36.90;21.00;;;;;;;1.07;79.83;99662.80;430226;1274;143401;-62
2022/01/16 12:17:55;;;;;;;37.70;23.60;;;;;;;1.04;80.02;99653.91;431166;1273;143642;-62
2022/01/16 12:28:02;;;;;;;37.90;22.80;;;;;;;1.08;79.71;99638.30;429817;1273;142093;-62
2022/01/16 12:38:12;;;;;;;39.10;22.10;;;;;;;1.00;79.72;99626.42;431573;1273;142910;-62
2022/01/16 12:48:18;;;;;;;35.40;21.20;;;;;;;1.02;79.79;99613.63;431840;1273;141791;-66
2022/01/16 12:58:24;;;;;;;46.00;23.20;;;;;;;1.11;79.85;99591.85;432306;1274;197129;-65
2022/01/16 13:08:50;;;;;;;40.40;22.80;;;;;;;1.11;79.36;99575.29;434806;1273;142016;-64
2022/01/16 13:19:05;;;;;;;36.20;23.40;;;;;;;1.10;79.39;99556.54;431028;1273;144369;-64
2022/01/16 13:29:15;;;;;;;45.00;26.40;;;;;;;1.08;79.24;99537.78;432211;1273;142264;-64
2022/01/16 13:49:54;;;;;;;47.30;28.90;;;;;;;0.92;79.27;99494.75;420148;1306;599653;-64
2022/01/16 14:00:04;;;;;;;40.70;26.50;;;;;;;0.76;79.03;99472.74;427827;1280;141503;-65
2022/01/16 14:10:10;;;;;;;50.50;30.70;;;;;;;0.61;79.21;99444.54;427956;1280;141738;-65
2022/01/16 14:20:48;;;;;;;45.40;28.30;;;;;;;0.43;79.38;99438.09;429921;1271;145105;-64
2022/01/16 14:30:52;;;;;;;43.00;23.60;;;;;;;0.20;79.18;99444.30;434533;1271;142058;-64
2022/01/16 14:41:19;;;;;;;46.00;27.10;;;;;;;0.04;79.61;99448.83;431746;1271;141190;-65
2022/01/16 14:51:25;;;;;;;43.50;26.40;;;;;;;-0.10;79.57;99444.84;430270;1271;143353;-65
2022/01/16 15:01:31;;;;;;;46.00;28.70;;;;;;;-0.25;79.64;99434.67;430469;1271;143259;-64
2022/01/16 15:11:38;;;;;;;43.00;25.40;;;;;;;-0.38;79.75;99428.76;433850;1271;141805;-65
2022/01/16 15:21:48;;;;;;;35.70;23.20;;;;;;;-0.44;80.08;99429.04;431747;1271;143347;-65
2022/01/16 15:31:55;;;;;;;37.60;20.60;;;;;;;-0.50;79.85;99416.45;431966;1272;140651;-65
2022/01/16 15:42:01;;;;;;;38.00;22.10;;;;;;;-0.56;80.16;99415.05;430068;1271;144821;-65
2022/01/16 15:52:08;;;;;;;36.10;20.90;;;;;;;-0.65;80.11;99420.19;432201;1273;140958;-65
2022/01/16 16:02:12;;;;;;;;;;;;;;;-0.70;80.41;99423.92;433465;1271;141415;-64
2022/01/16 16:12:18;;;;;;;34.10;21.90;;;;;;;-0.80;80.41;99443.19;432503;1271;128846;-62
2022/01/16 16:22:25;;;;;;;36.50;22.60;;;;;;;-0.87;80.51;99444.16;429839;1271;209900;-64
2022/01/16 16:32:31;;;;;;;40.90;23.70;;;;;;;-0.90;80.82;99443.90;444213;1270;142019;-65
2022/01/16 16:42:37;;;;;;;38.00;24.50;;;;;;;-0.85;81.11;99453.58;438500;1271;142480;-64
2022/01/16 16:52:44;;;;;;;27.80;17.50;;;;;;;-0.74;81.08;99448.75;432022;1273;141140;-65
2022/01/16 17:02:50;;;;;;;41.80;24.60;;;;;;;-0.58;81.34;99445.67;431194;1273;142908;-66
2022/01/16 17:12:57;;;;;;;46.70;24.60;;;;;;;-0.43;81.45;99435.23;430793;1274;141797;-65
2022/01/16 17:23:07;;;;;;;36.50;21.60;;;;;;;-0.31;81.55;99423.61;432785;1272;140446;-63
2022/01/16 17:33:14;;;;;;;32.20;20.30;;;;;;;-0.16;81.36;99413.14;431723;1271;192736;-64
2022/01/16 17:43:20;;;;;;;37.40;22.00;;;;;;;-0.02;81.67;99411.60;431114;1272;141058;-64
2022/01/16 17:53:26;;;;;;;33.20;20.50;;;;;;;0.08;81.43;99413.96;430103;1273;141442;-64
2022/01/16 18:03:32;;;;;;;31.80;19.30;;;;;;;0.20;81.35;99403.67;430791;1274;141881;-65
2022/01/16 18:13:38;;;;;;;33.40;22.30;;;;;;;0.30;81.71;99386.05;431997;1272;141515;-69
2022/01/16 18:23:44;;;;;;;30.30;19.50;;;;;;;0.38;81.87;99393.42;432515;1273;140962;-68
2022/01/16 18:33:50;;;;;;;33.30;20.20;;;;;;;0.46;82.11;99385.66;432523;1273;141058;-69
2022/01/16 18:43:57;;;;;;;29.70;17.60;;;;;;;0.50;82.27;99387.27;430814;1271;140598;-68
2022/01/16 18:54:03;;;;;;;28.80;21.30;;;;;;;0.50;82.48;99392.95;430503;1273;141489;-69
2022/01/16 19:04:09;;;;;;;24.60;19.10;;;;;;;0.49;82.79;99391.77;430803;1273;142630;-71
2022/01/16 19:14:15;;;;;;;22.00;16.90;;;;;;;0.45;82.91;99399.81;432584;1271;141930;-70
2022/01/16 19:24:22;;;;;;;19.50;14.70;;;;;;;0.36;82.75;99398.30;432907;1271;144812;-68
2022/01/16 19:34:27;;;;;;;18.10;12.70;;;;;;;0.27;83.10;99405.76;430835;1271;143182;-70
2022/01/16 19:44:34;;;;;;;17.80;11.80;;;;;;;0.20;83.13;99412.11;431079;1273;144011;-70
2022/01/16 19:54:41;;;;;;;17.90;12.60;;;;;;;0.16;83.64;99417.55;432756;1273;141482;-70
2022/01/16 20:04:47;;;;;;;21.30;13.80;;;;;;;0.12;83.93;99417.14;431313;1271;142700;-71
2022/01/16 20:14:53;;;;;;;26.00;14.80;;;;;;;0.09;84.56;99413.93;430814;1271;140929;-67
2022/01/16 20:24:59;;;;;;;19.70;14.70;;;;;;;0.09;84.95;99416.17;431592;1271;141014;-70
2022/01/16 20:35:07;;;;;;;23.60;15.30;;;;;;;0.09;85.49;99416.33;430747;1271;143109;-70
2022/01/16 20:45:15;;;;;;;18.80;13.10;;;;;;;0.08;85.72;99418.42;431586;1271;141247;-69
2022/01/16 20:55:24;;;;;;;21.60;14.20;;;;;;;0.08;86.06;99418.23;431156;1271;139939;-69
2022/01/16 21:05:30;;;;;;;22.60;15.50;;;;;;;0.07;86.29;99418.80;432407;1273;142041;-70
2022/01/16 21:15:38;;;;;;;21.40;15.40;;;;;;;0.06;86.69;99416.75;429285;1273;142811;-69
2022/01/16 21:25:58;;;;;;;18.50;13.10;;;;;;;0.09;87.00;99412.55;434281;1273;143256;-69
2022/01/16 21:36:05;;;;;;;18.60;14.90;;;;;;;0.13;87.20;99408.15;432661;1273;140869;-72
2022/01/16 21:46:11;;;;;;;20.90;13.80;;;;;;;0.19;87.51;99413.35;430800;1273;141137;-70
2022/01/16 21:56:17;;;;;;;19.00;12.90;;;;;;;0.17;87.68;99407.02;430581;1271;140662;-70
2022/01/16 22:06:27;;;;;;;19.10;13.70;;;;;;;0.19;87.61;99402.67;430964;1271;141248;-70
2022/01/16 22:16:34;;;;;;;19.30;13.10;;;;;;;0.14;87.91;99388.00;430543;1271;142089;-71
2022/01/16 22:26:41;;;;;;;18.50;13.00;;;;;;;0.09;88.11;99372.80;431106;1274;140607;-65
2022/01/16 22:36:47;;;;;;;17.80;12.30;;;;;;;0.10;88.27;99351.06;430920;1271;141485;-66
2022/01/16 22:46:53;;;;;;;16.90;11.90;;;;;;;0.13;88.27;99345.15;431128;1271;141715;-65
2022/01/16 22:56:59;;;;;;;16.20;11.30;;;;;;;0.18;88.34;99339.52;437653;1271;140569;-65
2022/01/16 23:07:06;;;;;;;14.40;10.80;;;;;;;0.20;88.43;99331.05;431852;1271;141954;-65
2022/01/16 23:17:13;;;;;;;17.70;12.20;;;;;;;0.23;88.51;99311.15;432669;1269;142708;-63
2022/01/16 23:27:17;;;;;;;;;;;;;;;0.26;88.68;99310.05;432421;1271;141799;-64
2022/01/16 23:37:23;;;;;;;19.50;14.70;;;;;;;0.31;88.97;99295.98;432747;1271;127227;-63
2022/01/16 23:47:29;;;;;;;24.20;14.80;;;;;;;0.31;89.04;99274.45;430716;1271;141510;-63
2022/01/16 23:57:36;;;;;;;28.90;17.00;;;;;;;0.37;89.56;99247.60;433698;1271;141075;-71
